createdAt,value
2022-11-05T00:00:37.491Z,27.70
2022-11-05T00:03:28.965Z,25.70
2022-11-05T00:06:15.166Z,26.30
2022-11-05T00:09:01.691Z,26.90
2022-11-05T00:11:47.784Z,26.20
2022-11-05T00:14:34.087Z,24.60
2022-11-05T00:17:01.895Z,25.80
2022-11-05T00:19:29.675Z,26.00
2022-11-05T00:22:16.265Z,25.60
2022-11-05T00:25:02.584Z,24.70
2022-11-05T00:27:34.173Z,22.90
2022-11-05T00:30:01.977Z,25.40
2022-11-05T00:32:29.841Z,25.00
2022-11-05T00:34:57.665Z,24.90
2022-11-05T00:37:28.222Z,22.50
2022-11-05T00:39:56.161Z,22.20
2022-11-05T00:42:42.426Z,22.60
2022-11-05T00:45:10.694Z,22.60
2022-11-05T00:47:58.042Z,20.80
2022-11-05T00:50:26.564Z,19.50
2022-11-05T00:53:00.739Z,19.50
2022-11-05T00:55:30.210Z,18.30
2022-11-05T00:57:58.275Z,19.80
2022-11-05T01:00:29.563Z,19.40
2022-11-05T01:02:59.577Z,18.40
2022-11-05T01:05:28.289Z,18.80
2022-11-05T01:07:56.534Z,19.30
2022-11-05T01:10:24.907Z,19.70
2022-11-05T01:12:53.297Z,19.20
2022-11-05T01:15:21.502Z,19.30
2022-11-05T01:17:51.173Z,19.60
2022-11-05T01:20:18.914Z,20.70
2022-11-05T01:22:46.862Z,18.10
2022-11-05T01:25:14.834Z,19.10
2022-11-05T01:27:42.642Z,16.60
2022-11-05T01:30:13.432Z,17.50
2022-11-05T01:32:41.755Z,16.60
2022-11-05T01:35:14.083Z,16.70
2022-11-05T01:37:42.257Z,16.80
2022-11-05T01:40:19.748Z,15.60
2022-11-05T01:42:47.672Z,15.30
2022-11-05T01:45:25.576Z,15.40
2022-11-05T01:48:24.670Z,15.40
2022-11-05T01:51:03.346Z,14.60
2022-11-05T01:53:52.085Z,13.60
2022-11-05T01:56:38.266Z,13.80
2022-11-05T01:59:16.946Z,13.30
2022-11-05T02:01:45.446Z,12.90
2022-11-05T02:04:21.405Z,13.10
2022-11-05T02:06:49.284Z,13.70
2022-11-05T02:09:33.515Z,14.20
2022-11-05T02:12:01.460Z,13.20
2022-11-05T02:14:29.364Z,14.10
2022-11-05T02:17:06.149Z,13.40
2022-11-05T02:20:09.699Z,13.30
2022-11-05T02:23:02.321Z,12.70
2022-11-05T02:26:07.915Z,12.50
2022-11-05T02:29:00.356Z,12.10
2022-11-05T02:32:08.066Z,12.30
2022-11-05T02:35:19.325Z,11.90
2022-11-05T02:37:54.791Z,12.30
2022-11-05T02:40:30.706Z,12.40
2022-11-05T02:43:26.285Z,11.60
2022-11-05T02:46:03.979Z,11.20
2022-11-05T02:49:19.217Z,11.80
2022-11-05T02:51:57.987Z,11.40
2022-11-05T02:54:51.489Z,12.10
2022-11-05T02:57:22.048Z,10.60
2022-11-05T03:00:01.860Z,10.90
2022-11-05T03:02:29.941Z,10.90
2022-11-05T03:04:58.904Z,10.90
2022-11-05T03:07:45.849Z,10.60
2022-11-05T03:10:33.772Z,11.80
2022-11-05T03:13:18.367Z,10.80
2022-11-05T03:16:13.344Z,11.30
2022-11-05T03:18:51.747Z,10.60
2022-11-05T03:21:35.758Z,11.20
2022-11-05T03:24:17.302Z,10.50
2022-11-05T03:27:23.981Z,10.60
2022-11-05T03:29:59.619Z,10.10
2022-11-05T03:32:30.798Z,10.20
2022-11-05T03:35:06.460Z,10.30
2022-11-05T03:37:37.919Z,10.00
2022-11-05T03:40:08.981Z,9.20
2022-11-05T03:42:39.380Z,8.40
2022-11-05T03:45:27.117Z,7.10
2022-11-05T03:47:58.317Z,7.40
2022-11-05T03:50:51.173Z,6.10
2022-11-05T03:53:27.365Z,6.10
2022-11-05T03:56:06.937Z,6.00
2022-11-05T03:58:35.569Z,5.50
2022-11-05T04:01:04.234Z,5.50
2022-11-05T04:03:36.674Z,5.50
2022-11-05T04:06:25.618Z,5.60
2022-11-05T04:09:12.275Z,5.70
2022-11-05T04:11:58.591Z,5.60
2022-11-05T04:14:26.623Z,5.00
2022-11-05T04:17:06.401Z,5.50
2022-11-05T04:20:03.733Z,5.90
2022-11-05T04:22:53.198Z,5.80
2022-11-05T04:25:22.078Z,6.60
2022-11-05T04:27:50.140Z,5.80
2022-11-05T04:30:19.456Z,5.90
2022-11-05T04:33:02.478Z,5.20
2022-11-05T04:35:42.248Z,5.50
2022-11-05T04:38:14.781Z,5.30
2022-11-05T04:40:43.218Z,5.30
2022-11-05T04:43:17.533Z,5.20
2022-11-05T04:45:46.020Z,4.90
2022-11-05T04:48:13.862Z,4.60
2022-11-05T04:50:41.803Z,4.70
2022-11-05T04:53:09.816Z,4.10
2022-11-05T04:55:37.815Z,4.90
2022-11-05T04:58:05.667Z,4.10
2022-11-05T05:00:33.495Z,4.70
2022-11-05T05:03:01.381Z,4.30
2022-11-05T05:05:30.603Z,4.80
2022-11-05T05:08:05.900Z,4.70
2022-11-05T05:10:33.737Z,3.90
2022-11-05T05:13:01.530Z,4.60
2022-11-05T05:15:29.337Z,5.00
2022-11-05T05:17:57.176Z,4.40
2022-11-05T05:20:43.358Z,4.80
2022-11-05T05:23:11.365Z,4.90
2022-11-05T05:25:39.360Z,5.00
2022-11-05T05:28:07.238Z,4.90
2022-11-05T05:30:35.062Z,4.80
2022-11-05T05:33:04.560Z,4.50
2022-11-05T05:35:32.408Z,4.00
2022-11-05T05:38:00.234Z,3.80
2022-11-05T05:40:28.127Z,3.50
2022-11-05T05:42:56.065Z,3.80
2022-11-05T05:45:23.920Z,6.70
2022-11-05T05:47:51.846Z,6.80
2022-11-05T05:50:19.619Z,4.50
2022-11-05T05:52:47.634Z,4.10
2022-11-05T05:55:15.508Z,3.90
2022-11-05T05:57:43.393Z,3.60
2022-11-05T06:00:12.455Z,3.60
2022-11-05T06:02:41.726Z,3.70
2022-11-05T06:05:11.148Z,3.80
2022-11-05T06:07:38.999Z,3.50
2022-11-05T06:10:07.255Z,3.80
2022-11-05T06:12:35.084Z,3.90
2022-11-05T06:15:03.187Z,3.70
2022-11-05T06:17:31.040Z,3.80
2022-11-05T06:19:58.778Z,3.70
2022-11-05T06:22:26.551Z,3.90
2022-11-05T06:24:54.361Z,3.40
2022-11-05T06:27:22.261Z,3.60
2022-11-05T06:29:50.013Z,3.60
2022-11-05T06:32:17.745Z,3.20
2022-11-05T06:34:45.588Z,3.30
2022-11-05T06:37:14.634Z,3.10
2022-11-05T06:39:42.561Z,3.30
2022-11-05T06:42:18.936Z,3.60
2022-11-05T06:44:47.292Z,3.50
2022-11-05T06:47:20.921Z,3.50
2022-11-05T06:49:49.361Z,3.80
2022-11-05T06:52:17.201Z,3.20
2022-11-05T06:54:45.015Z,4.30
2022-11-05T06:57:13.113Z,3.30
2022-11-05T06:59:41.351Z,3.40
2022-11-05T07:02:12.940Z,3.20
2022-11-05T07:04:40.905Z,3.60
2022-11-05T07:07:08.805Z,3.20
2022-11-05T07:09:42.717Z,3.40
2022-11-05T07:12:11.131Z,3.60
2022-11-05T07:14:39.391Z,3.10
2022-11-05T07:17:07.340Z,3.80
2022-11-05T07:19:35.184Z,3.30
2022-11-05T07:22:03.029Z,3.60
2022-11-05T07:24:30.894Z,3.30
2022-11-05T07:26:58.847Z,3.60
2022-11-05T07:29:26.610Z,3.80
2022-11-05T07:31:54.586Z,3.40
2022-11-05T07:34:22.386Z,3.50
2022-11-05T07:36:50.285Z,3.90
2022-11-05T07:39:18.382Z,4.00
2022-11-05T07:41:46.295Z,3.50
2022-11-05T07:44:14.573Z,3.60
2022-11-05T07:46:42.520Z,3.80
2022-11-05T07:49:10.563Z,4.00
2022-11-05T07:51:43.097Z,4.70
2022-11-05T07:54:11.136Z,3.60
2022-11-05T07:56:39.034Z,3.70
2022-11-05T07:59:06.948Z,3.70
2022-11-05T08:01:35.022Z,4.00
2022-11-05T08:04:06.258Z,3.60
2022-11-05T08:06:43.231Z,3.70
2022-11-05T08:09:11.363Z,4.10
2022-11-05T08:11:40.066Z,4.30
2022-11-05T08:14:08.255Z,4.10
2022-11-05T08:16:36.069Z,3.60
2022-11-05T08:19:04.773Z,4.30
2022-11-05T08:21:32.675Z,4.00
2022-11-05T08:24:00.472Z,3.90
2022-11-05T08:26:28.268Z,3.70
2022-11-05T08:28:56.046Z,3.80
2022-11-05T08:31:23.884Z,3.60
2022-11-05T08:34:09.920Z,4.20
2022-11-05T08:36:37.789Z,3.50
2022-11-05T08:39:05.568Z,4.30
2022-11-05T08:41:33.461Z,3.90
2022-11-05T08:44:01.316Z,3.40
2022-11-05T08:46:29.310Z,3.60
2022-11-05T08:48:57.097Z,5.30
2022-11-05T08:51:24.974Z,3.80
2022-11-05T08:53:52.764Z,3.60
2022-11-05T08:56:20.843Z,3.80
2022-11-05T08:58:48.845Z,3.70
2022-11-05T09:01:17.003Z,4.20
2022-11-05T09:03:45.180Z,4.00
2022-11-05T09:06:13.162Z,3.80
2022-11-05T09:08:41.090Z,3.80
2022-11-05T09:11:09.028Z,5.40
2022-11-05T09:13:36.866Z,5.10
2022-11-05T09:16:05.443Z,5.10
2022-11-05T09:18:33.745Z,5.40
2022-11-05T09:21:01.547Z,4.70
2022-11-05T09:25:50.630Z,5.60
2022-11-05T09:28:21.636Z,5.20
2022-11-05T09:30:53.089Z,4.60
2022-11-05T09:33:26.686Z,6.20
2022-11-05T09:35:54.725Z,5.50
2022-11-05T09:38:22.592Z,5.50
2022-11-05T09:41:02.360Z,5.80
2022-11-05T09:43:49.893Z,6.30
2022-11-05T09:46:21.019Z,5.80
2022-11-05T09:49:03.459Z,5.90
2022-11-05T09:51:32.431Z,6.50
2022-11-05T09:54:00.735Z,6.00
2022-11-05T09:56:34.421Z,4.70
2022-11-05T09:59:40.220Z,5.60
2022-11-05T10:02:35.850Z,4.90
2022-11-05T10:05:10.211Z,5.30
2022-11-05T10:07:48.633Z,5.30
2022-11-05T10:10:50.257Z,6.50
2022-11-05T10:13:23.654Z,5.50
2022-11-05T10:16:03.267Z,5.50
2022-11-05T10:18:41.126Z,5.60
2022-11-05T10:21:16.935Z,5.10
2022-11-05T10:23:48.137Z,6.70
2022-11-05T10:26:21.240Z,5.00
2022-11-05T10:28:49.632Z,5.20
2022-11-05T10:31:23.292Z,5.30
2022-11-05T10:34:02.138Z,4.90
2022-11-05T10:36:34.612Z,5.40
2022-11-05T10:39:20.395Z,5.20
2022-11-05T10:42:33.354Z,4.30
2022-11-05T10:45:04.597Z,4.70
2022-11-05T10:48:26.173Z,4.60
2022-11-05T10:50:54.267Z,5.40
2022-11-05T10:53:34.577Z,4.90
2022-11-05T10:56:02.863Z,4.60
2022-11-05T10:58:34.894Z,5.10
2022-11-05T11:01:11.122Z,4.50
2022-11-05T11:04:03.864Z,5.00
2022-11-05T11:06:39.991Z,4.60
2022-11-05T11:09:20.045Z,4.50
2022-11-05T11:11:55.516Z,5.80
2022-11-05T11:14:23.349Z,5.50
2022-11-05T11:16:51.911Z,4.90
2022-11-05T11:19:31.827Z,5.80
2022-11-05T11:22:05.853Z,5.10
2022-11-05T11:24:54.198Z,5.10
2022-11-05T11:27:27.416Z,5.40
2022-11-05T11:30:04.995Z,4.90
2022-11-05T11:32:37.918Z,4.80
2022-11-05T11:35:09.071Z,5.20
2022-11-05T11:37:42.190Z,4.50
2022-11-05T11:40:45.272Z,4.70
2022-11-05T11:43:26.076Z,5.70
2022-11-05T11:45:59.382Z,4.70
2022-11-05T11:48:32.021Z,5.00
2022-11-05T11:51:00.179Z,5.20
2022-11-05T11:53:34.756Z,5.10
2022-11-05T11:56:14.080Z,5.10
2022-11-05T11:58:43.828Z,4.90
2022-11-05T12:01:43.078Z,5.30
2022-11-05T12:04:29.374Z,4.90
2022-11-05T12:07:25.398Z,5.00
2022-11-05T12:10:35.458Z,5.40
2022-11-05T12:13:24.522Z,5.10
2022-11-05T12:16:15.807Z,6.70
2022-11-05T12:19:05.119Z,5.40
2022-11-05T12:21:58.941Z,5.20
2022-11-05T12:25:13.020Z,6.20
2022-11-05T12:28:57.703Z,5.70
2022-11-05T12:32:08.499Z,7.50
2022-11-05T12:35:14.736Z,4.90
2022-11-05T12:38:09.441Z,6.20
2022-11-05T12:40:44.265Z,4.70
2022-11-05T12:43:15.368Z,4.40
2022-11-05T12:45:46.645Z,5.60
2022-11-05T12:48:46.999Z,5.30
2022-11-05T12:51:37.064Z,4.50
2022-11-05T12:54:25.819Z,4.80
2022-11-05T12:56:58.293Z,4.40
2022-11-05T13:00:03.762Z,4.80
2022-11-05T13:02:46.497Z,3.80
2022-11-05T13:05:34.642Z,4.80
2022-11-05T13:08:13.312Z,3.90
2022-11-05T13:11:16.021Z,3.70
2022-11-05T13:14:06.319Z,3.70
2022-11-05T13:16:42.779Z,4.10
2022-11-05T13:19:41.417Z,3.40
2022-11-05T13:22:17.785Z,4.00
2022-11-05T13:24:51.788Z,8.40
2022-11-05T13:27:50.710Z,4.60
2022-11-05T13:30:26.176Z,4.30
2022-11-05T13:33:03.324Z,5.40
2022-11-05T13:35:41.038Z,3.10
2022-11-05T13:38:37.251Z,3.80
2022-11-05T13:41:25.811Z,3.00
2022-11-05T13:44:24.200Z,3.50
2022-11-05T13:47:52.483Z,3.30
2022-11-05T13:50:55.126Z,2.60
2022-11-05T13:54:02.693Z,2.60
2022-11-05T13:57:26.528Z,3.10
2022-11-05T14:00:23.720Z,2.80
2022-11-05T14:03:05.757Z,3.60
2022-11-05T14:05:35.632Z,3.60
2022-11-05T14:08:20.151Z,4.70
2022-11-05T14:11:18.680Z,2.60
2022-11-05T14:13:46.975Z,2.50
2022-11-05T14:16:21.735Z,2.10
2022-11-05T14:19:18.274Z,2.90
2022-11-05T14:21:54.641Z,2.30
2022-11-05T14:24:22.472Z,3.50
2022-11-05T14:27:02.644Z,3.00
2022-11-05T14:29:44.864Z,2.90
2022-11-05T14:32:18.882Z,2.50
2022-11-05T14:34:49.047Z,2.80
2022-11-05T14:37:28.450Z,2.70
2022-11-05T14:39:57.497Z,2.80
2022-11-05T14:42:29.877Z,2.60
2022-11-05T14:44:59.818Z,2.60
2022-11-05T14:47:41.742Z,3.20
2022-11-05T14:50:41.131Z,2.60
2022-11-05T14:53:35.136Z,2.70
2022-11-05T14:56:14.836Z,3.40
2022-11-05T14:58:44.838Z,3.10
2022-11-05T15:01:15.632Z,3.60
2022-11-05T15:04:01.211Z,3.70
2022-11-05T15:06:33.253Z,2.90
2022-11-05T15:09:05.791Z,3.90
2022-11-05T15:14:16.860Z,4.50
2022-11-05T15:16:51.180Z,4.20
2022-11-05T15:19:32.670Z,4.50
2022-11-05T15:22:20.000Z,4.20
2022-11-05T15:24:48.241Z,4.30
2022-11-05T15:27:34.489Z,4.00
2022-11-05T15:30:23.927Z,3.60
2022-11-05T15:32:52.463Z,3.20
2022-11-05T15:35:26.971Z,3.10
2022-11-05T15:38:02.111Z,3.60
2022-11-05T15:40:33.901Z,4.30
2022-11-05T15:43:19.449Z,5.20
2022-11-05T15:46:06.571Z,8.40
2022-11-05T15:48:36.012Z,11.60
2022-11-05T15:51:04.146Z,13.00
2022-11-05T15:53:51.552Z,12.20
2022-11-05T15:56:41.336Z,15.60
2022-11-05T15:59:19.365Z,15.10
2022-11-05T16:02:05.246Z,13.50
2022-11-05T16:04:36.536Z,13.40
2022-11-05T16:07:10.586Z,10.20
2022-11-05T16:09:43.763Z,8.10
2022-11-05T16:12:25.580Z,11.50
2022-11-05T16:15:10.071Z,13.80
2022-11-05T16:17:37.915Z,10.00
2022-11-05T16:20:35.856Z,15.60
2022-11-05T16:23:23.437Z,19.90
2022-11-05T16:25:53.791Z,26.60
2022-11-05T16:28:30.269Z,46.70
2022-11-05T16:31:01.988Z,32.90
2022-11-05T16:33:44.474Z,28.50
2022-11-05T16:36:15.784Z,15.60
2022-11-05T16:38:54.726Z,16.80
2022-11-05T16:41:25.461Z,30.70
2022-11-05T16:43:59.606Z,28.60
2022-11-05T16:46:29.646Z,20.30
2022-11-05T16:48:58.047Z,19.70
2022-11-05T16:51:29.025Z,15.30
2022-11-05T16:53:57.020Z,14.00
2022-11-05T16:56:24.932Z,12.70
2022-11-05T16:58:53.365Z,12.60
2022-11-05T17:01:23.348Z,76.50
2022-11-05T17:03:53.283Z,123.90
2022-11-05T17:06:22.486Z,54.50
2022-11-05T17:20:57.593Z,27.60
2022-11-05T17:23:29.893Z,47.80
2022-11-05T17:26:05.830Z,51.50
2022-11-05T17:28:34.254Z,47.60
2022-11-05T17:31:05.017Z,29.50
2022-11-05T17:33:33.667Z,17.40
2022-11-05T17:36:11.800Z,15.80
2022-11-05T17:38:40.667Z,26.30
2022-11-05T17:41:19.007Z,28.40
2022-11-05T17:43:48.002Z,26.80
2022-11-05T17:46:19.439Z,36.10
2022-11-05T17:48:47.528Z,31.80
2022-11-05T17:51:18.756Z,27.90
2022-11-05T17:53:49.352Z,26.40
2022-11-05T17:56:29.202Z,27.90
2022-11-05T17:59:03.218Z,26.90
2022-11-05T18:01:34.769Z,30.70
2022-11-05T18:04:08.730Z,38.60
2022-11-05T18:06:39.613Z,39.70
2022-11-05T18:09:09.346Z,51.00
2022-11-05T18:11:38.639Z,71.90
2022-11-05T18:14:07.372Z,72.80
2022-11-05T18:16:35.298Z,63.10
2022-11-05T18:19:04.069Z,100.30
2022-11-05T18:21:31.949Z,60.50
2022-11-05T18:24:04.132Z,40.10
2022-11-05T18:26:33.133Z,31.60
2022-11-05T18:29:03.129Z,35.50
2022-11-05T18:31:31.171Z,43.40
2022-11-05T18:33:59.819Z,51.90
2022-11-05T18:36:30.366Z,42.30
2022-11-05T18:39:01.188Z,32.40
2022-11-05T18:41:29.460Z,27.40
2022-11-05T18:44:02.447Z,25.10
2022-11-05T18:49:19.955Z,39.60
2022-11-05T18:51:48.214Z,33.40
2022-11-05T18:54:16.471Z,25.40
2022-11-05T18:56:47.502Z,28.10
2022-11-05T19:02:08.083Z,30.10
2022-11-05T19:04:37.512Z,34.00
2022-11-05T19:07:07.242Z,33.50
2022-11-05T19:09:37.936Z,34.00
2022-11-05T19:12:07.394Z,40.20
2022-11-05T19:14:35.946Z,46.00
2022-11-05T19:17:04.592Z,35.60
2022-11-05T19:19:34.573Z,38.50
2022-11-05T19:22:04.187Z,44.50
2022-11-05T19:24:32.923Z,40.20
2022-11-05T19:27:02.093Z,34.30
2022-11-05T19:29:30.920Z,31.90
2022-11-05T19:31:59.616Z,30.60
2022-11-05T19:34:27.785Z,32.30
2022-11-05T19:36:55.750Z,37.40
2022-11-05T19:39:23.842Z,41.70
2022-11-05T19:41:51.977Z,44.10
2022-11-05T19:44:20.032Z,40.70
2022-11-05T19:46:48.690Z,40.00
2022-11-05T19:49:17.093Z,28.30
2022-11-05T19:51:45.678Z,33.40
2022-11-05T19:54:14.235Z,62.90
2022-11-05T19:56:43.123Z,66.60
2022-11-05T19:59:13.155Z,56.90
2022-11-05T20:01:45.084Z,43.00
2022-11-05T20:04:14.233Z,39.10
2022-11-05T20:06:42.692Z,36.70
2022-11-05T20:09:22.561Z,33.30
2022-11-05T20:11:56.692Z,33.40
2022-11-05T20:14:26.672Z,31.20
2022-11-05T20:16:55.465Z,30.00
2022-11-05T20:19:24.278Z,29.80
2022-11-05T20:21:53.135Z,37.20
2022-11-05T20:24:25.371Z,34.30
2022-11-05T20:26:55.748Z,37.10
2022-11-05T20:29:30.496Z,42.00
2022-11-05T20:32:04.831Z,37.90
2022-11-05T20:34:35.111Z,32.40
2022-11-05T20:37:04.355Z,42.70
2022-11-05T20:39:33.181Z,46.70
2022-11-05T20:42:02.112Z,40.30
2022-11-05T20:44:33.293Z,40.40
2022-11-05T20:47:02.218Z,48.70
2022-11-05T20:49:31.136Z,48.10
2022-11-05T20:51:59.745Z,46.90
2022-11-05T20:54:28.031Z,48.20
2022-11-05T20:56:56.237Z,54.10
2022-11-05T20:59:24.919Z,48.50
2022-11-05T21:01:53.418Z,34.30
2022-11-05T21:04:21.670Z,32.70
2022-11-05T21:06:49.714Z,32.30
2022-11-05T21:09:17.764Z,30.20
2022-11-05T21:12:04.671Z,30.20
2022-11-05T21:14:32.718Z,27.80
2022-11-05T21:17:01.010Z,27.30
2022-11-05T21:19:32.747Z,25.80
2022-11-05T21:22:02.014Z,25.60
2022-11-05T21:24:31.352Z,25.00
2022-11-05T21:26:59.707Z,25.20
2022-11-05T21:29:28.151Z,24.50
2022-11-05T21:31:56.343Z,24.20
2022-11-05T21:34:24.808Z,25.10
2022-11-05T21:36:53.334Z,24.00
2022-11-05T21:39:22.020Z,24.20
2022-11-05T21:41:50.417Z,25.70
2022-11-05T21:44:19.314Z,27.90
2022-11-05T21:46:47.756Z,30.10
2022-11-05T21:49:19.561Z,29.40
2022-11-05T21:52:06.947Z,30.20
2022-11-05T21:54:54.039Z,35.90
2022-11-05T21:57:41.079Z,46.50
2022-11-05T22:00:11.985Z,43.20
2022-11-05T22:02:40.146Z,42.20
2022-11-05T22:05:08.747Z,39.40
2022-11-05T22:07:39.023Z,41.60
2022-11-05T22:10:16.175Z,45.10
2022-11-05T22:12:45.497Z,59.50
2022-11-05T22:15:13.996Z,59.10
2022-11-05T22:17:46.473Z,53.30
2022-11-05T22:20:16.201Z,46.00
2022-11-05T22:22:45.285Z,46.80
2022-11-05T22:25:14.506Z,50.40
2022-11-05T22:27:44.044Z,47.60
2022-11-05T22:30:13.573Z,41.80
2022-11-05T22:32:41.512Z,38.40
2022-11-05T22:35:10.001Z,38.00
2022-11-05T22:37:38.152Z,37.90
2022-11-05T22:40:06.966Z,37.10
2022-11-05T22:42:34.927Z,35.70
2022-11-05T22:45:03.011Z,37.20
2022-11-05T22:47:30.791Z,36.40
2022-11-05T22:49:58.824Z,34.90
2022-11-05T22:52:27.092Z,34.30
2022-11-05T22:54:55.012Z,32.50
2022-11-05T22:57:22.825Z,33.10
2022-11-05T22:59:50.747Z,32.60
2022-11-05T23:02:18.638Z,33.30
2022-11-05T23:04:46.575Z,33.50
2022-11-05T23:07:33.071Z,34.30
2022-11-05T23:10:19.389Z,34.30
2022-11-05T23:12:47.206Z,33.20
2022-11-05T23:15:34.988Z,33.60
2022-11-05T23:18:21.751Z,35.00
2022-11-05T23:21:08.460Z,34.10
2022-11-05T23:23:55.261Z,33.00
2022-11-05T23:26:42.164Z,34.00
2022-11-05T23:29:10.128Z,33.40
2022-11-05T23:31:56.741Z,34.20
2022-11-05T23:34:24.600Z,35.10
2022-11-05T23:37:11.136Z,31.60
2022-11-05T23:39:42.682Z,34.90
2022-11-05T23:42:33.139Z,31.10
2022-11-05T23:45:19.621Z,32.20
2022-11-05T23:48:06.633Z,31.10
2022-11-05T23:50:39.543Z,32.00
2022-11-05T23:53:08.529Z,30.60
2022-11-05T23:55:36.418Z,33.10
2022-11-05T23:58:04.362Z,30.10
